Hlavní strana
METAR-TAF:

METAR-TAF

Letiště :

Cúcuta, Kolumbie

zeměpisná šířka: 07-56N, zeměpisná délka: 072-31W, výška: 250 m

Aktuální stav počasí

Zpráva byla vytvořena před 12 hodinami a 2 minutami, v 22:00 UTC
vítr z různých směrů 2 kt
Teplota 31°C
Vlhkost vzduchu 55%
Tlak 1011 hPa
Viditelnost 10 km a více
Polojasno ve výšce 1800 ft, Cumulonimbus.

METAR: SKCC 292200Z VRB02KT 9999 SCT018CB 31/21 A2985 RMK CB N/NW

Čas: 05:02 (10:02 UTC)

Předpověď počasí

Zpráva byla vytvořena před 5 hodinami a 32 minutami, v 04:30 UTC
Předpověď platná od 30 v 06 UTC do 31 v 06 UTC
vítr z různých směrů 3 kt
Viditelnost: 5000 m
Oblačno až skoro zataženo ve výšce 1200 ft
Polojasno ve výšce 7000 ft
mrholení, déšť, chuchvalce mlhy
Změna
od 30 v 13 UTC do 30 v 14 UTC
Severní vítr 10 kt
Viditelnost 10 km a více
Polojasno ve výšce 1700 ft
Polojasno ve výšce 8000 ft

TAF: SKCC 300430Z 3006/3106 VRB03KT 5000 DZRA BCFG BKN012 SCT070 BECMG 3013/3014 36010KT 9999 NSW SCT017 SCT080 TX33/3019Z TN25/3011Z

Stav a předpovědi počasí z více než 4 000 letišť (zprávy METAR a TAF).

Červené a žluté tečky na mapě představují dostupné meteorologické stanice.

Když kurzor umístíte na tečku, zobrazí se název stanice.

Pak kliknutím zobrazíte stav a předpověď počasí.

Chcete-li změnit mapu, kliknutím na zelené tlačítko se znaménkem +mapu přiblížíte, kliknutím na zelené tlačítko se znaménkem – mapu oddálíte a kliknutím na zelené šipky přejdete na sousední mapy.


METAR-TAF: